Time;durP1;ratioP1;P1;durP2;ratioP2;P2;SDS_P1;SDS_P2;PMS_P1;PMS_P2;Temp;Humidity;BMP_temperature;BMP_pressure;BME280_temperature;BME280_humidity;BME280_pressure;Samples;Min_cycle;Max_cycle;Signal;HPM_P1;HPM_P2
2022/10/03 00:01:56;;;;;;;13.13;5.05;;;;;;;9.26;92.71;102479.13;4983021;28;20030;-83
2022/10/03 00:04:57;;;;;;;11.70;3.83;;;;;;;9.24;92.98;102476.63;4986240;28;20038;-83
2022/10/03 00:07:57;;;;;;;11.68;4.30;;;;;;;9.35;92.01;102485.59;4972147;28;20042;-85
2022/10/03 00:10:42;;;;;;;14.00;4.50;;;;;;;9.29;92.17;102499.72;4977739;28;20026;-84
2022/10/03 00:13:13;;;;;;;13.73;4.60;;;;;;;9.28;92.40;102498.84;4986137;28;20072;-83
2022/10/03 00:15:52;;;;;;;13.00;4.25;;;;;;;9.28;92.37;102498.00;4980157;28;20106;-84
2022/10/03 00:18:53;;;;;;;14.43;4.70;;;;;;;9.24;93.14;102497.34;4979547;28;20539;-83
2022/10/03 00:21:31;;;;;;;11.25;4.00;;;;;;;9.26;93.44;102490.31;4964876;28;20096;-83
2022/10/03 00:24:08;;;;;;;10.30;4.07;;;;;;;9.28;92.32;102503.19;4958686;28;20116;-83
2022/10/03 00:26:39;;;;;;;12.27;4.60;;;;;;;9.19;92.91;102503.66;4965809;28;20509;-83
2022/10/03 00:29:25;;;;;;;14.43;5.65;;;;;;;9.22;92.75;102513.84;4961198;28;20354;-83
2022/10/03 00:31:56;;;;;;;11.85;4.70;;;;;;;9.22;92.34;102513.84;4961344;28;20047;-83
2022/10/03 00:34:33;;;;;;;19.75;6.05;;;;;;;9.15;92.87;102522.84;4954974;28;20035;-83
2022/10/03 00:37:31;;;;;;;13.98;4.70;;;;;;;9.20;93.36;102518.28;4966171;28;20129;-84
2022/10/03 00:40:14;;;;;;;12.25;4.78;;;;;;;9.19;93.02;102519.19;4963410;28;20488;-84
2022/10/03 00:42:52;;;;;;;12.75;4.97;;;;;;;9.07;92.89;102524.97;4961312;28;20774;-83
2022/10/03 00:45:41;;;;;;;11.35;4.22;;;;;;;9.03;93.15;102519.09;4965316;28;20038;-84
2022/10/03 00:48:26;;;;;;;12.70;4.53;;;;;;;9.09;93.23;102521.38;4964549;28;20085;-79
2022/10/03 00:50:57;;;;;;;14.15;4.03;;;;;;;9.08;93.19;102526.63;4965492;28;20081;-81
2022/10/03 00:53:53;;;;;;;13.68;4.63;;;;;;;9.08;92.97;102521.47;4958677;28;20113;-83
2022/10/03 00:56:48;;;;;;;10.85;4.07;;;;;;;9.02;92.89;102520.84;4968447;28;20049;-84
2022/10/03 00:59:33;;;;;;;14.75;5.15;;;;;;;8.83;93.56;102522.63;4985602;28;20030;-82
2022/10/03 01:02:24;;;;;;;13.07;5.30;;;;;;;8.89;93.76;102522.34;4973419;28;20058;-82
2022/10/03 01:05:18;;;;;;;15.45;4.47;;;;;;;8.93;92.98;102529.03;4979857;28;20030;-84
2022/10/03 01:08:02;;;;;;;14.43;4.63;;;;;;;8.94;93.10;102540.22;4984958;28;20117;-84
2022/10/03 01:10:47;;;;;;;12.10;4.22;;;;;;;8.91;93.24;102530.88;4976741;28;20045;-79
2022/10/03 01:14:20;;;;;;;9.75;3.65;;;;;;;8.97;93.11;102540.91;4979467;28;20377;-83
2022/10/03 01:17:08;;;;;;;12.68;4.95;;;;;;;8.90;93.37;102544.72;4895496;29;20102;-84
2022/10/03 01:20:11;;;;;;;14.05;4.25;;;;;;;8.94;93.19;102546.22;4907073;29;20131;-83
2022/10/03 01:23:07;;;;;;;10.98;4.53;;;;;;;8.76;93.68;102534.16;4907291;29;20047;-82
2022/10/03 01:25:57;;;;;;;12.00;4.45;;;;;;;8.87;93.29;102554.34;4902459;29;20040;-84
2022/10/03 01:31:22;;;;;;;11.60;4.05;;;;;;;8.83;94.00;102553.69;4910412;29;20099;-83
2022/10/03 01:34:04;;;;;;;11.38;3.88;;;;;;;8.86;93.94;102563.03;4900563;29;20047;-83
2022/10/03 01:36:39;;;;;;;11.15;4.57;;;;;;;8.78;94.05;102561.66;4899679;29;20032;-83
2022/10/03 01:39:23;;;;;;;12.43;4.93;;;;;;;8.77;94.77;102554.81;4901133;29;20427;-84
2022/10/03 01:41:59;;;;;;;13.02;4.32;;;;;;;8.80;94.69;102553.81;4906459;29;20134;-84
2022/10/03 01:44:39;;;;;;;11.98;5.43;;;;;;;8.71;94.59;102555.06;4900262;29;20060;-82
2022/10/03 01:47:26;;;;;;;13.00;4.95;;;;;;;8.77;94.63;102556.53;4906552;29;20053;-83
2022/10/03 01:50:06;;;;;;;9.90;4.15;;;;;;;8.81;94.66;102554.66;4906582;28;20101;-77
2022/10/03 01:53:03;;;;;;;17.08;4.75;;;;;;;8.85;94.81;102556.19;4978865;28;20034;-81
2022/10/03 01:55:49;;;;;;;9.85;4.25;;;;;;;8.83;94.55;102553.69;4977686;28;20066;-82
2022/10/03 01:58:39;;;;;;;13.57;4.88;;;;;;;8.84;95.12;102554.53;4990075;28;20073;-83
2022/10/03 02:01:13;;;;;;;11.10;4.25;;;;;;;8.83;94.62;102551.09;4989347;28;20049;-83
2022/10/03 02:04:03;;;;;;;14.88;5.28;;;;;;;8.84;95.09;102552.75;4979629;28;20058;-84
2022/10/03 02:06:46;;;;;;;11.13;4.53;;;;;;;8.83;95.13;102553.69;4983938;28;20125;-83
2022/10/03 02:09:38;;;;;;;14.90;4.57;;;;;;;8.82;94.80;102557.16;4984168;28;20069;-83
2022/10/03 02:12:12;;;;;;;14.98;5.43;;;;;;;8.72;95.06;102555.94;4981389;28;20086;-82
2022/10/03 02:14:47;;;;;;;15.23;5.68;;;;;;;8.69;95.11;102550.88;4984504;28;20034;-84
2022/10/03 02:17:29;;;;;;;13.27;4.80;;;;;;;8.74;95.93;102559.28;4970066;28;20081;-83
2022/10/03 02:20:04;;;;;;;13.82;5.13;;;;;;;8.71;96.19;102554.22;4984351;28;20049;-83
2022/10/03 02:22:44;;;;;;;11.10;4.25;;;;;;;8.75;95.66;102560.94;4980606;28;20035;-83
2022/10/03 02:25:34;;;;;;;11.57;5.72;;;;;;;8.71;96.53;102564.56;4982337;28;20030;-82
2022/10/03 02:28:20;;;;;;;10.98;4.53;;;;;;;8.74;96.09;102561.84;4977927;28;20045;-80
2022/10/03 02:31:10;;;;;;;12.60;4.80;;;;;;;8.74;96.64;102565.28;4986323;28;20061;-83
2022/10/03 02:33:43;;;;;;;12.45;4.53;;;;;;;8.73;95.67;102562.78;4983714;28;20070;-78
2022/10/03 02:36:50;;;;;;;11.40;4.70;;;;;;;8.71;95.89;102559.41;4982999;28;20106;-81
2022/10/03 02:39:45;;;;;;;11.27;4.80;;;;;;;8.72;95.73;102567.09;4978488;28;20026;-83
2022/10/03 02:42:29;;;;;;;12.27;4.82;;;;;;;8.64;96.73;102558.84;4989474;28;20022;-79
2022/10/03 02:45:23;;;;;;;13.65;5.07;;;;;;;8.67;96.73;102563.06;4990078;28;20125;-83
2022/10/03 02:48:30;;;;;;;11.13;5.13;;;;;;;8.71;96.62;102574.91;4986601;28;20050;-83
2022/10/03 02:51:25;;;;;;;14.73;4.57;;;;;;;8.69;96.14;102571.56;4944344;28;20059;-81
2022/10/03 02:54:06;;;;;;;14.07;6.00;;;;;;;8.60;96.49;102569.38;4944454;29;20027;-83
2022/10/03 02:57:09;;;;;;;11.93;4.57;;;;;;;8.63;96.63;102564.09;4947789;28;20485;-82
2022/10/03 03:00:03;;;;;;;12.23;4.15;;;;;;;8.65;95.57;102564.84;4948551;28;20118;-82
2022/10/03 03:03:00;;;;;;;11.32;5.07;;;;;;;8.59;96.72;102565.13;4940831;28;20110;-83
2022/10/03 03:05:57;;;;;;;13.07;4.97;;;;;;;8.62;96.47;102565.84;4946696;28;20039;-83
2022/10/03 03:08:59;;;;;;;8.40;3.30;;;;;;;8.60;96.09;102551.28;4945591;28;20046;-82
2022/10/03 03:12:02;;;;;;;11.88;4.75;;;;;;;8.60;96.62;102561.63;4940700;28;20046;-83
2022/10/03 03:15:00;;;;;;;11.60;4.97;;;;;;;8.55;96.43;102567.03;4945176;29;20079;-83
2022/10/03 03:17:44;;;;;;;11.40;5.15;;;;;;;8.52;96.44;102565.41;4914708;28;20039;-83
2022/10/03 03:20:19;;;;;;;9.40;4.68;;;;;;;8.49;96.36;102570.75;4947682;28;20035;-85
2022/10/03 03:23:03;;;;;;;11.55;4.75;;;;;;;8.50;95.71;102577.59;4944044;28;20352;-84
2022/10/03 03:25:40;;;;;;;13.18;5.35;;;;;;;8.42;95.79;102579.66;4931948;29;20035;-84
2022/10/03 03:28:18;;;;;;;8.85;4.13;;;;;;;8.44;95.67;102583.03;4969533;28;20049;-84
2022/10/03 03:30:55;;;;;;;10.30;3.90;;;;;;;8.43;95.66;102586.53;4982528;28;20049;-83
2022/10/03 03:33:40;;;;;;;12.98;5.00;;;;;;;8.38;95.73;102582.47;4988477;28;20035;-83
2022/10/03 03:36:15;;;;;;;9.90;4.30;;;;;;;8.37;95.81;102581.63;4988248;28;20037;-84
2022/10/03 03:39:22;;;;;;;9.85;3.60;;;;;;;8.44;95.93;102583.03;4987681;28;20097;-84
2022/10/03 03:42:25;;;;;;;8.13;3.47;;;;;;;8.41;95.52;102577.97;4959823;28;20094;-84
2022/10/03 03:44:59;;;;;;;9.02;3.72;;;;;;;8.38;95.74;102578.13;4979754;28;20034;-84
2022/10/03 03:47:56;;;;;;;12.10;4.78;;;;;;;8.31;96.05;102574.09;4980227;28;20042;-83
2022/10/03 03:50:47;;;;;;;14.23;4.25;;;;;;;8.32;96.26;102582.72;4976727;28;20496;-83
2022/10/03 03:53:27;;;;;;;9.98;4.75;;;;;;;8.31;96.26;102576.66;4970510;28;20046;-82
2022/10/03 03:56:16;;;;;;;9.73;3.95;;;;;;;8.36;96.11;102585.09;4971891;28;20031;-82
2022/10/03 03:58:50;;;;;;;10.68;4.20;;;;;;;8.35;96.30;102572.22;4972773;28;20033;-80
2022/10/03 04:01:41;;;;;;;12.20;4.30;;;;;;;8.38;96.12;102583.31;4979214;28;20521;-81
2022/10/03 04:04:21;;;;;;;8.77;4.13;;;;;;;8.32;96.15;102580.97;4978263;28;20026;-81
2022/10/03 04:07:02;;;;;;;11.48;5.15;;;;;;;8.28;96.56;102581.16;4978159;28;20069;-83
2022/10/03 04:09:43;;;;;;;10.63;4.00;;;;;;;8.31;96.28;102583.59;4969532;28;20395;-83
2022/10/03 04:12:16;;;;;;;9.50;4.35;;;;;;;8.18;96.24;102571.22;4972955;28;20031;-78
2022/10/03 04:14:44;;;;;;;10.25;3.55;;;;;;;8.29;95.92;102583.66;4985025;28;20121;-81
2022/10/03 04:20:52;;;;;;;14.77;4.28;;;;;;;8.24;96.87;102580.44;4985117;28;20455;-79
2022/10/03 04:23:29;;;;;;;10.82;4.20;;;;;;;8.24;96.69;102588.19;4979908;28;20089;-81
2022/10/03 04:26:36;;;;;;;11.57;4.10;;;;;;;8.20;96.88;102584.06;4982003;28;20113;-83
2022/10/03 04:29:20;;;;;;;10.85;4.03;;;;;;;8.17;97.07;102589.38;4988431;28;20415;-83
2022/10/03 04:32:01;;;;;;;7.65;3.00;;;;;;;8.22;96.39;102587.44;4986771;28;20454;-82
2022/10/03 04:34:40;;;;;;;15.90;4.32;;;;;;;8.16;96.27;102587.69;4977169;28;20307;-81
2022/10/03 04:37:15;;;;;;;12.32;3.85;;;;;;;8.17;96.66;102591.97;4987431;28;20018;-81
2022/10/03 04:40:16;;;;;;;10.20;3.97;;;;;;;8.13;96.86;102582.66;4979168;28;20039;-82
2022/10/03 04:43:09;;;;;;;10.40;3.85;;;;;;;8.20;96.97;102599.56;4987233;28;20040;-81
2022/10/03 04:45:59;;;;;;;10.38;3.33;;;;;;;8.23;96.80;102599.44;4983775;28;20026;-82
2022/10/03 04:49:16;;;;;;;9.25;3.45;;;;;;;8.21;96.55;102596.94;4984897;28;21212;-83
2022/10/03 04:51:59;;;;;;;11.98;3.70;;;;;;;8.11;96.64;102597.38;4966961;28;20046;-82
2022/10/03 04:54:55;;;;;;;9.93;3.80;;;;;;;8.16;96.69;102598.03;4981407;28;20029;-83
2022/10/03 04:57:41;;;;;;;9.70;3.47;;;;;;;8.07;96.40;102598.41;4983994;28;20485;-78
2022/10/03 05:00:28;;;;;;;11.55;4.25;;;;;;;8.08;96.95;102606.09;4984965;28;20041;-81
2022/10/03 05:03:20;;;;;;;10.90;3.83;;;;;;;8.08;96.85;102605.25;4988026;28;20026;-83
2022/10/03 05:05:58;;;;;;;9.23;3.65;;;;;;;8.09;96.61;102615.56;4987708;28;20697;-83
2022/10/03 05:08:54;;;;;;;10.20;3.13;;;;;;;8.08;96.93;102611.25;4984422;28;20469;-83
2022/10/03 05:11:44;;;;;;;11.23;3.80;;;;;;;8.03;96.45;102607.19;4976185;28;20065;-83
2022/10/03 05:14:21;;;;;;;8.18;3.47;;;;;;;7.99;96.24;102617.69;4982415;28;20376;-81
2022/10/03 05:17:03;;;;;;;13.05;3.80;;;;;;;8.03;96.96;102612.38;4980146;28;20465;-82
2022/10/03 05:19:46;;;;;;;9.35;3.67;;;;;;;8.03;97.13;102612.38;4986866;28;20550;-82
2022/10/03 05:22:45;;;;;;;10.15;3.95;;;;;;;7.98;97.28;102610.84;4987677;28;20034;-81
2022/10/03 05:25:36;;;;;;;8.20;3.58;;;;;;;7.95;96.76;102608.38;4985590;28;20038;-83
2022/10/03 05:28:33;;;;;;;8.57;3.42;;;;;;;7.94;97.02;102608.44;4980230;28;20038;-82
2022/10/03 05:31:23;;;;;;;9.68;3.45;;;;;;;7.97;96.75;102616.91;4976394;28;20069;-82
2022/10/03 05:34:01;;;;;;;10.43;3.88;;;;;;;7.95;96.81;102615.28;4981325;28;20023;-80
2022/10/03 05:36:34;;;;;;;8.40;3.83;;;;;;;7.95;97.17;102621.28;4981755;28;20294;-83
2022/10/03 05:39:21;;;;;;;10.05;3.50;;;;;;;7.95;97.39;102621.28;4977256;28;20113;-83
2022/10/03 05:41:57;;;;;;;10.10;3.80;;;;;;;7.86;97.26;102628.59;4987237;28;20034;-77
2022/10/03 05:44:42;;;;;;;9.00;3.40;;;;;;;7.84;97.20;102620.06;4973119;28;20030;-82
2022/10/03 05:47:47;;;;;;;9.82;4.05;;;;;;;7.86;96.54;102636.34;4985294;28;20036;-83
2022/10/03 05:50:56;;;;;;;12.32;3.55;;;;;;;7.89;97.00;102626.72;4980778;28;20034;-83
2022/10/03 05:53:45;;;;;;;8.77;2.88;;;;;;;7.86;96.67;102626.84;4981749;28;20053;-80
2022/10/03 05:56:22;;;;;;;8.40;3.47;;;;;;;7.89;97.27;102636.19;4980712;28;20113;-82
2022/10/03 05:59:26;;;;;;;9.48;3.55;;;;;;;7.87;97.00;102633.69;4978379;28;20035;-83
2022/10/03 06:01:51;;;;;;;9.63;3.78;;;;;;;7.81;97.40;102636.53;4973972;28;20074;-82
2022/10/03 06:04:22;;;;;;;14.07;4.10;;;;;;;7.86;97.34;102642.34;4976692;28;20070;-83
2022/10/03 06:07:18;;;;;;;7.30;3.42;;;;;;;7.91;97.86;102647.31;4975150;28;20022;-83
2022/10/03 06:10:01;;;;;;;11.95;4.35;;;;;;;7.89;97.50;102647.38;4977032;28;20043;-83
2022/10/03 06:12:39;;;;;;;8.32;4.28;;;;;;;7.90;97.97;102651.63;4980026;28;20478;-82
2022/10/03 06:15:28;;;;;;;9.65;3.33;;;;;;;7.88;97.74;102640.53;4973324;28;20034;-82
2022/10/03 06:17:59;;;;;;;7.15;3.47;;;;;;;7.91;97.63;102645.59;5003818;28;20567;-83
2022/10/03 06:20:43;;;;;;;10.07;4.15;;;;;;;7.84;98.19;102638.13;4990370;28;20048;-83
2022/10/03 06:23:36;;;;;;;7.15;3.55;;;;;;;7.91;97.52;102643.00;4973225;28;20027;-80
2022/10/03 06:26:20;;;;;;;11.98;3.65;;;;;;;7.93;98.14;102638.59;4982419;28;20030;-83
2022/10/03 06:28:57;;;;;;;11.25;4.63;;;;;;;7.94;98.32;102648.03;4984582;28;20061;-82
2022/10/03 06:31:57;;;;;;;9.23;4.07;;;;;;;7.99;98.56;102646.09;4988116;28;20113;-83
2022/10/03 06:35:07;;;;;;;10.68;4.30;;;;;;;7.99;98.17;102648.69;4987961;28;20027;-79
2022/10/03 06:38:02;;;;;;;8.23;4.35;;;;;;;7.98;98.60;102647.00;4979611;28;20109;-81
2022/10/03 06:40:47;;;;;;;8.65;4.32;;;;;;;8.04;98.41;102650.25;4977316;28;20504;-83
2022/10/03 06:43:34;;;;;;;8.93;4.85;;;;;;;8.03;98.70;102654.56;4986542;28;20034;-83
2022/10/03 06:46:30;;;;;;;10.85;4.63;;;;;;;8.07;99.29;102652.69;4984113;28;20164;-82
2022/10/03 06:49:08;;;;;;;12.63;5.80;;;;;;;8.04;99.40;102645.06;4974155;28;20050;-82
2022/10/03 06:52:01;;;;;;;12.90;5.40;;;;;;;8.12;99.81;102653.34;4986780;28;20483;-80
2022/10/03 06:54:45;;;;;;;10.73;5.82;;;;;;;8.14;99.96;102651.50;4983460;28;20495;-80
2022/10/03 06:57:22;;;;;;;12.80;5.85;;;;;;;8.15;99.92;102648.06;4987590;28;20087;-81
2022/10/03 07:00:14;;;;;;;11.20;5.88;;;;;;;8.23;100.00;102662.31;4984811;28;20073;-80
2022/10/03 07:02:45;;;;;;;14.93;6.38;;;;;;;8.26;100.00;102663.94;4988039;28;20041;-80
2022/10/03 07:05:38;;;;;;;11.50;6.82;;;;;;;8.31;100.00;102659.41;4975662;28;20034;-82
2022/10/03 07:08:14;;;;;;;10.27;6.15;;;;;;;8.27;100.00;102650.13;4979790;28;20033;-78
2022/10/03 07:10:58;;;;;;;12.77;6.72;;;;;;;8.43;100.00;102664.09;4983096;28;20030;-84
2022/10/03 07:13:27;;;;;;;11.35;6.60;;;;;;;8.50;100.00;102670.69;4982328;28;20030;-83
2022/10/03 07:16:01;;;;;;;11.93;6.68;;;;;;;8.52;100.00;102668.84;4985563;28;20054;-83
2022/10/03 07:19:04;;;;;;;12.20;6.82;;;;;;;8.61;100.00;102671.97;4981000;28;20049;-82
2022/10/03 07:22:07;;;;;;;12.48;6.72;;;;;;;8.67;100.00;102676.88;4987579;28;20081;-79
2022/10/03 07:24:53;;;;;;;12.27;7.47;;;;;;;8.74;100.00;102675.69;4981930;28;20096;-83
2022/10/03 07:27:46;;;;;;;13.02;7.00;;;;;;;8.81;100.00;102666.72;4978439;28;20037;-81
2022/10/03 07:30:23;;;;;;;14.30;7.45;;;;;;;8.86;100.00;102672.53;4978855;28;20116;-83
2022/10/03 07:33:10;;;;;;;13.98;8.38;;;;;;;8.97;100.00;102677.25;4988109;28;20030;-82
2022/10/03 07:41:22;;;;;;;16.85;8.27;;;;;;;9.23;100.00;102686.38;4987032;28;20053;-80
2022/10/03 07:43:50;;;;;;;13.88;7.55;;;;;;;9.29;100.00;102681.78;4987309;28;20049;-82
2022/10/03 07:46:37;;;;;;;13.02;7.05;;;;;;;9.36;100.00;102692.72;4985071;28;20054;-81
2022/10/03 07:49:27;;;;;;;13.27;7.28;;;;;;;9.47;100.00;102706.00;4980916;28;20034;-83
2022/10/03 07:52:30;;;;;;;13.02;7.70;;;;;;;9.57;100.00;102709.81;4981808;28;20164;-77
2022/10/03 07:55:19;;;;;;;14.75;8.15;;;;;;;9.66;100.00;102715.47;4974775;28;20030;-82
2022/10/03 07:57:51;;;;;;;15.55;10.32;;;;;;;9.74;100.00;102715.94;4975770;28;20543;-82
2022/10/03 08:00:21;;;;;;;13.25;8.32;;;;;;;9.83;100.00;102713.75;4980378;28;20037;-82
2022/10/03 08:03:21;;;;;;;17.20;11.00;;;;;;;9.94;100.00;102721.03;4988891;28;20034;-83
2022/10/03 08:06:23;;;;;;;16.65;9.07;;;;;;;10.06;100.00;102728.19;4995163;28;20462;-82
2022/10/03 08:08:52;;;;;;;16.67;10.23;;;;;;;10.27;100.00;102721.16;4985162;28;20034;-81
2022/10/03 08:11:47;;;;;;;14.25;8.85;;;;;;;10.35;100.00;102720.75;4986517;28;20384;-83
2022/10/03 08:14:18;;;;;;;16.13;10.93;;;;;;;10.47;100.00;102722.72;4983731;28;20048;-82
2022/10/03 08:17:02;;;;;;;15.93;9.82;;;;;;;10.55;100.00;102712.81;4978348;28;20023;-82
2022/10/03 08:19:56;;;;;;;14.73;8.23;;;;;;;10.59;100.00;102709.13;4986560;28;20034;-84
2022/10/03 08:22:52;;;;;;;15.57;8.02;;;;;;;10.67;100.00;102705.28;4978398;28;20026;-84
2022/10/03 08:25:36;;;;;;;12.80;7.90;;;;;;;10.72;100.00;102705.88;4984731;28;20026;-82
2022/10/03 08:28:31;;;;;;;14.98;8.25;;;;;;;10.82;100.00;102705.34;4987382;28;20026;-79
2022/10/03 08:31:25;;;;;;;15.07;8.10;;;;;;;10.96;100.00;102707.22;4981623;28;20123;-80
2022/10/03 08:34:20;;;;;;;15.15;8.55;;;;;;;11.09;100.00;102697.84;4976031;28;20048;-78
2022/10/03 08:37:13;;;;;;;17.17;8.65;;;;;;;11.26;100.00;102702.13;4982983;28;20033;-82
2022/10/03 08:39:57;;;;;;;15.93;7.50;;;;;;;11.35;100.00;102703.38;4976662;28;20043;-81
2022/10/03 08:42:40;;;;;;;17.20;8.32;;;;;;;11.46;100.00;102706.22;4988473;28;20305;-82
2022/10/03 08:45:25;;;;;;;13.70;7.13;;;;;;;11.63;100.00;102703.50;4985234;28;20037;-80
2022/10/03 08:47:59;;;;;;;12.80;7.45;;;;;;;11.72;100.00;102707.38;4973472;28;20120;-81
2022/10/03 08:50:57;;;;;;;13.48;7.53;;;;;;;11.84;100.00;102705.88;4982685;28;20033;-82
2022/10/03 08:53:41;;;;;;;15.73;7.43;;;;;;;12.00;99.78;102711.88;4976970;28;20027;-82
2022/10/03 08:56:24;;;;;;;13.80;7.05;;;;;;;12.12;99.67;102705.97;4976627;28;20051;-80
2022/10/03 08:59:07;;;;;;;13.68;7.95;;;;;;;12.21;99.04;102715.84;4978469;28;20026;-82
2022/10/03 09:02:16;;;;;;;13.90;7.80;;;;;;;12.18;99.61;102684.78;4972033;28;20089;-82
2022/10/03 09:05:04;;;;;;;12.00;7.32;;;;;;;12.42;98.72;102718.09;4984751;28;20030;-82
2022/10/03 09:08:07;;;;;;;14.75;7.25;;;;;;;12.54;97.99;102722.56;4980729;28;20051;-81
2022/10/03 09:10:33;;;;;;;11.35;6.78;;;;;;;12.62;97.89;102715.16;4984977;28;20070;-83
2022/10/03 09:13:08;;;;;;;14.48;6.75;;;;;;;12.71;98.82;102717.19;4986028;28;20034;-83
2022/10/03 09:15:48;;;;;;;13.50;6.35;;;;;;;12.77;98.69;102723.78;4982916;28;20046;-83
2022/10/03 09:18:40;;;;;;;11.43;6.38;;;;;;;12.82;98.21;102726.97;4986009;28;20022;-83
2022/10/03 09:21:43;;;;;;;13.18;6.05;;;;;;;12.90;97.91;102722.13;4987904;28;20085;-81
2022/10/03 09:24:33;;;;;;;12.48;6.20;;;;;;;13.00;97.46;102720.63;4982699;28;20070;-82
2022/10/03 09:27:17;;;;;;;11.68;6.35;;;;;;;13.09;97.94;102719.22;4976545;28;20041;-80
2022/10/03 09:29:48;;;;;;;13.10;6.30;;;;;;;13.16;96.88;102710.09;4984682;28;20420;-82
2022/10/03 09:32:36;;;;;;;13.07;5.72;;;;;;;13.25;95.52;102708.72;4985944;28;20073;-82
2022/10/03 09:35:33;;;;;;;12.52;5.38;;;;;;;13.25;95.23;102708.72;4982314;28;20030;-83
2022/10/03 09:38:36;;;;;;;11.30;5.28;;;;;;;13.33;94.85;102708.22;4983915;28;20023;-82
2022/10/03 09:41:38;;;;;;;13.68;6.03;;;;;;;13.38;95.38;102707.00;4982177;28;20092;-81
2022/10/03 09:44:22;;;;;;;11.82;5.28;;;;;;;13.44;94.53;102700.56;4977582;28;20626;-83
2022/10/03 09:47:21;;;;;;;11.13;4.70;;;;;;;13.46;93.95;102689.09;4987069;28;20038;-82
2022/10/03 09:49:38;;;;;;;11.35;4.63;;;;;;;13.51;93.83;102688.81;4986765;28;20038;-78
2022/10/03 09:52:46;;;;;;;11.32;4.18;;;;;;;13.64;92.06;102692.28;4987049;28;20088;-81
2022/10/03 09:55:23;;;;;;;10.77;3.58;;;;;;;13.73;92.23;102688.25;4991150;28;20072;-83
2022/10/03 09:58:30;;;;;;;10.77;3.25;;;;;;;13.77;92.28;102690.56;4985587;28;20068;-76
2022/10/03 10:01:25;;;;;;;8.67;2.97;;;;;;;13.85;91.69;102682.25;4984973;28;20070;-81
2022/10/03 10:04:16;;;;;;;12.50;3.80;;;;;;;13.91;91.32;102681.00;4984602;28;20277;-82
2022/10/03 10:07:06;;;;;;;13.00;3.38;;;;;;;13.98;90.67;102677.03;4981232;28;20170;-81
2022/10/03 10:09:43;;;;;;;10.57;3.25;;;;;;;14.03;90.20;102674.97;4983655;28;20065;-82
2022/10/03 10:12:17;;;;;;;10.43;2.72;;;;;;;14.03;89.85;102674.97;4991513;28;20034;-76
2022/10/03 10:15:19;;;;;;;10.00;2.95;;;;;;;14.12;89.22;102679.56;4974818;28;20033;-81
2022/10/03 10:18:09;;;;;;;11.65;2.95;;;;;;;14.13;87.81;102676.03;4987026;28;20157;-82
2022/10/03 10:21:12;;;;;;;9.95;2.78;;;;;;;14.20;88.24;102687.72;4980915;28;20053;-79
2022/10/03 10:23:53;;;;;;;8.57;2.40;;;;;;;14.16;87.67;102690.63;4985908;28;20531;-79
2022/10/03 10:26:52;;;;;;;9.00;2.50;;;;;;;14.20;88.15;102692.09;4987527;28;20041;-81
2022/10/03 10:29:24;;;;;;;6.60;2.00;;;;;;;14.33;86.52;102687.72;4978997;28;20491;-81
2022/10/03 10:32:19;;;;;;;10.48;2.40;;;;;;;14.35;86.94;102684.06;4981803;28;20105;-81
2022/10/03 10:34:50;;;;;;;7.72;2.22;;;;;;;14.35;83.99;102691.91;4987833;28;20033;-82
2022/10/03 10:37:32;;;;;;;8.05;1.92;;;;;;;14.37;85.26;102693.56;4988479;28;20060;-82
2022/10/03 10:40:27;;;;;;;8.43;2.20;;;;;;;14.38;82.33;102700.47;4981244;28;20027;-82
2022/10/03 10:43:16;;;;;;;9.35;2.13;;;;;;;14.46;84.46;102690.34;4985766;28;20030;-83
2022/10/03 10:46:04;;;;;;;9.50;1.80;;;;;;;14.52;84.94;102692.56;4989105;28;20464;-80
2022/10/03 10:48:48;;;;;;;7.85;2.00;;;;;;;14.57;84.41;102700.94;4974320;28;20053;-78
2022/10/03 10:51:35;;;;;;;7.57;1.70;;;;;;;14.55;83.34;102703.63;4985932;28;20343;-81
2022/10/03 10:54:06;;;;;;;7.90;1.90;;;;;;;14.47;80.86;102699.88;4983560;28;20168;-80
2022/10/03 10:57:13;;;;;;;6.55;1.70;;;;;;;14.48;81.30;102704.16;4978717;28;20038;-81
2022/10/03 11:00:15;;;;;;;8.45;2.10;;;;;;;14.54;82.01;102701.13;4980318;28;20112;-81
2022/10/03 11:03:18;;;;;;;7.45;1.65;;;;;;;14.57;83.83;102700.94;4981171;28;20037;-81
2022/10/03 11:06:21;;;;;;;7.85;1.90;;;;;;;14.60;83.15;102690.25;4982437;28;20031;-82
2022/10/03 11:09:27;;;;;;;7.63;2.00;;;;;;;14.61;82.64;102694.53;4985522;28;20365;-81
2022/10/03 11:12:02;;;;;;;7.45;1.95;;;;;;;14.73;82.88;102690.25;4926654;29;20423;-82
2022/10/03 11:14:36;;;;;;;6.75;2.00;;;;;;;14.74;82.39;102692.75;4925865;29;20032;-78
2022/10/03 11:17:46;;;;;;;8.20;2.10;;;;;;;14.84;83.12;102688.53;4924451;29;20040;-81
2022/10/03 11:20:27;;;;;;;9.13;2.03;;;;;;;14.87;82.24;102687.50;4915618;29;20043;-81
2022/10/03 11:23:11;;;;;;;9.82;1.80;;;;;;;14.91;83.35;102688.13;4910142;29;20158;-81
2022/10/03 11:25:55;;;;;;;9.32;1.90;;;;;;;14.88;80.64;102690.00;4911046;29;20040;-82
2022/10/03 11:28:51;;;;;;;7.65;2.03;;;;;;;15.02;81.11;102690.81;4911875;29;20497;-80
2022/10/03 11:31:44;;;;;;;10.30;1.90;;;;;;;15.01;79.55;102694.38;4909928;29;20088;-79
2022/10/03 11:34:27;;;;;;;7.68;1.75;;;;;;;14.98;80.26;102689.38;4910257;29;20048;-79
2022/10/03 11:36:52;;;;;;;8.68;1.85;;;;;;;15.07;80.46;102693.94;4902775;29;20068;-81
2022/10/03 11:39:24;;;;;;;6.35;1.60;;;;;;;15.16;80.12;102680.22;4910920;29;20040;-82
2022/10/03 11:41:54;;;;;;;6.45;1.80;;;;;;;15.14;76.72;102680.34;4915416;28;20078;-81
2022/10/03 11:44:22;;;;;;;9.27;1.73;;;;;;;15.11;75.22;102669.25;4962095;28;20035;-82
2022/10/03 11:46:53;;;;;;;8.35;1.80;;;;;;;15.24;77.96;102680.50;4963322;28;20042;-79
2022/10/03 11:49:47;;;;;;;5.90;1.65;;;;;;;15.37;77.76;102676.06;4959377;28;20031;-81
2022/10/03 11:52:34;;;;;;;8.07;1.75;;;;;;;15.39;77.99;102679.41;4962123;28;20042;-77
2022/10/03 11:55:18;;;;;;;5.95;1.50;;;;;;;15.49;77.04;102686.59;4978124;28;20515;-82
2022/10/03 11:58:01;;;;;;;5.80;1.75;;;;;;;15.46;76.22;102678.94;4969911;28;20038;-83
2022/10/03 12:00:34;;;;;;;8.30;2.00;;;;;;;15.39;72.77;102679.41;4973473;28;20536;-78
2022/10/03 12:03:12;;;;;;;8.48;1.80;;;;;;;15.59;74.60;102674.47;4974919;28;20035;-82
2022/10/03 12:05:37;;;;;;;;;;;;;;;15.71;77.76;102678.84;4981621;28;20153;-81
2022/10/03 12:11:37;;;;;;;10.25;2.60;;;;;;;15.62;72.18;102674.28;4981527;28;20839;-81
2022/10/03 12:14:31;;;;;;;7.35;1.90;;;;;;;15.77;75.56;102669.69;4952724;28;20787;-82
2022/10/03 12:17:20;;;;;;;9.52;2.10;;;;;;;15.75;73.61;102680.28;4963349;28;20038;-77
2022/10/03 12:20:18;;;;;;;7.68;1.90;;;;;;;15.67;72.89;102672.19;4955805;28;20499;-82
2022/10/03 12:22:52;;;;;;;7.22;1.70;;;;;;;15.98;73.55;102659.44;4916557;29;20047;-81
2022/10/03 12:25:20;;;;;;;4.72;1.33;;;;;;;15.96;73.05;102661.34;4903296;29;20036;-81
2022/10/03 12:28:47;;;;;;;7.13;1.67;;;;;;;16.01;74.10;102664.44;4907632;29;20507;-78
2022/10/03 12:31:38;;;;;;;5.95;1.50;;;;;;;16.06;71.78;102657.09;4819183;29;20054;-83
2022/10/03 12:34:31;;;;;;;8.00;1.70;;;;;;;16.04;69.49;102658.97;4817708;29;20105;-81
2022/10/03 12:37:12;;;;;;;8.25;1.92;;;;;;;16.07;70.93;102658.75;4820393;29;20151;-82
2022/10/03 12:39:59;;;;;;;5.55;1.52;;;;;;;16.06;70.38;102659.69;4818934;29;20133;-81
2022/10/03 12:42:46;;;;;;;7.78;1.67;;;;;;;16.01;68.47;102651.34;4811061;29;20056;-81
2022/10/03 12:45:17;;;;;;;6.43;1.50;;;;;;;15.93;66.97;102651.91;4807650;29;20058;-80
2022/10/03 12:48:02;;;;;;;7.30;1.80;;;;;;;15.96;71.20;102651.69;4814210;29;20493;-80
2022/10/03 12:50:53;;;;;;;7.82;1.60;;;;;;;15.97;72.27;102652.53;4815852;29;20054;-81
2022/10/03 12:53:25;;;;;;;8.68;2.13;;;;;;;15.88;70.21;102660.09;4812041;29;20046;-81
2022/10/03 12:56:03;;;;;;;7.38;2.00;;;;;;;15.95;72.26;102659.66;4816562;29;20050;-81
2022/10/03 12:58:34;;;;;;;7.63;1.90;;;;;;;15.86;71.29;102648.94;4824390;29;20033;-82
2022/10/03 13:01:16;;;;;;;6.72;1.75;;;;;;;15.85;71.33;102655.13;4897469;28;20088;-78
2022/10/03 13:04:19;;;;;;;10.85;2.20;;;;;;;15.92;71.73;102640.63;4987989;28;20030;-82
2022/10/03 13:06:53;;;;;;;10.63;2.13;;;;;;;15.76;70.71;102640.09;4982551;28;20535;-82
2022/10/03 13:09:40;;;;;;;8.60;2.20;;;;;;;15.91;72.93;102643.34;4987565;28;20030;-78